Rugby, ND

9:11 AM CST on February 09, 2016 (GMT -0600)
Rugby Municipal

Weather History for KRUG - October, 2012

Change the Weather History Date:

Friday, October 19, 2012

  Actual Average Record
Temperature  
Mean Temperature 37 °F -  
Max Temperature 41 °F 56 °F 79 °F (1958)
Min Temperature 33 °F 30 °F 9 °F (1960)
Degree Days  
Heating Degree Days 28    
Moisture  
Dew Point 33 °F    
Average Humidity 84    
Maximum Humidity 93    
Minimum Humidity 75    
Precipitation  
Precipitation 0.00 in - - ()
Sea Level Pressure  
Sea Level Pressure 29.80 in    
Wind  
Wind Speed 12 mph (NW)    
Max Wind Speed 21 mph    
Max Gust Speed 24 mph    
Visibility 10 miles    
Events      
Averages and records for this station are not official NWS values.
T = Trace of Precipitation, MM = Missing Value Source: NWS Daily Summary

Daily Weather History Graph

Daily Weather History Graph

Search for Another Location

Airport or City:

Trip Planner

Search our weather history database for the weather conditions in past years. The results will help you decide how hot, cold, wet, or windy it might be!

Date:

Astronomy

Oct. 19, 2012 Rise Set
Actual Time 8:06 AM CDT 6:42 PM CDT
Civil Twilight 7:34 AM CDT 7:14 PM CDT
Nautical Twilight 6:58 AM CDT 7:50 PM CDT
Astronomical Twilight 6:22 AM CDT 8:26 PM CDT
Moon 1:08 PM CDT (10/19) 10:06 PM CDT (10/19)
Length of Visible Light 11h 39m
Length of Day
10h 35m
Waxing Crescent, 24% of the Moon is Illuminated
Oct 19
Waxing Crescent
Oct 21
First Quarter
Oct 29
Full
Nov 6
Last Quarter
Nov 13
New

Hourly Weather History & Observations

Time (CDT) Temp. Windchill Dew Point Humidity Pressure Visibility Wind Dir Wind Speed Gust Speed Precip Events Conditions
1:55 AM 37.4 °F 26.9 °F 32.0 °F 81% 29.88 in 10.0 mi NNW 20.7 mph 24.2 mph N/A   Mostly Cloudy
2:15 AM 35.6 °F 25.9 °F 32.0 °F 87% 29.88 in 10.0 mi NNW 16.1 mph - N/A   Mostly Cloudy
2:35 AM 35.6 °F 27.5 °F 32.0 °F 87% 29.89 in 10.0 mi NNW 11.5 mph - N/A   Partly Cloudy
2:55 AM 35.6 °F 28.6 °F 32.0 °F 87% 29.89 in 10.0 mi NW 9.2 mph - N/A   Mostly Cloudy
3:15 AM 35.6 °F 26.6 °F 32.0 °F 87% 29.89 in 10.0 mi NNW 13.8 mph 20.7 mph N/A   Overcast
3:35 AM 37.4 °F 28.5 °F 32.0 °F 81% 29.89 in 10.0 mi NNW 15.0 mph 20.7 mph N/A   Overcast
3:55 AM 37.4 °F 28.2 °F 32.0 °F 81% 29.89 in 10.0 mi NNW 16.1 mph - N/A   Overcast
4:15 AM 37.4 °F 28.9 °F 32.0 °F 81% 29.89 in 10.0 mi NW 13.8 mph - N/A   Overcast
4:35 AM 35.6 °F 26.2 °F 32.0 °F 87% 29.89 in 10.0 mi NW 15.0 mph 20.7 mph N/A   Overcast
4:55 AM 35.6 °F 25.9 °F 32.0 °F 87% 29.88 in 10.0 mi NNW 16.1 mph - N/A   Overcast
5:15 AM 35.6 °F 25.9 °F 32.0 °F 87% 29.88 in 10.0 mi NNW 16.1 mph 19.6 mph N/A   Overcast
5:35 AM 35.6 °F 27.1 °F 32.0 °F 87% 29.89 in 10.0 mi NW 12.7 mph - N/A   Overcast
5:55 AM 35.6 °F 27.5 °F 32.0 °F 87% 29.88 in 10.0 mi NW 11.5 mph - N/A   Overcast
6:15 AM 35.6 °F 27.5 °F 32.0 °F 87% 29.88 in 10.0 mi NW 11.5 mph - N/A   Overcast
6:35 AM 35.6 °F 28.6 °F 32.0 °F 87% 29.88 in 10.0 mi NW 9.2 mph - N/A   Overcast
6:55 AM 35.6 °F 27.1 °F 32.0 °F 87% 29.88 in 10.0 mi NW 12.7 mph - N/A   Overcast
7:15 AM 35.6 °F 27.5 °F 32.0 °F 87% 29.88 in 10.0 mi WNW 11.5 mph - N/A   Overcast
7:35 AM 35.6 °F 27.1 °F 32.0 °F 87% 29.87 in 10.0 mi NW 12.7 mph - N/A   Overcast
7:55 AM 35.6 °F 27.1 °F 32.0 °F 87% 29.86 in 10.0 mi NW 12.7 mph - N/A   Overcast
8:15 AM 33.8 °F 25.3 °F 32.0 °F 93% 29.87 in 10.0 mi NW 11.5 mph - N/A   Overcast
8:35 AM 35.6 °F 28.0 °F 32.0 °F 87% 29.87 in 10.0 mi NW 10.4 mph - N/A   Overcast
8:55 AM 35.6 °F 26.2 °F 32.0 °F 87% 29.87 in 10.0 mi NW 15.0 mph - N/A   Overcast
9:15 AM 35.6 °F 26.2 °F 32.0 °F 87% 29.87 in 10.0 mi NW 15.0 mph - N/A   Overcast
9:35 AM 35.6 °F 26.6 °F 32.0 °F 87% 29.86 in 10.0 mi NW 13.8 mph - N/A   Overcast
9:55 AM 35.6 °F 26.6 °F 32.0 °F 87% 29.87 in 10.0 mi NW 13.8 mph - N/A   Overcast
10:15 AM 35.6 °F 26.2 °F 32.0 °F 87% 29.86 in 10.0 mi NW 15.0 mph - N/A   Overcast
10:35 AM 35.6 °F 26.6 °F 32.0 °F 87% 29.86 in 10.0 mi NW 13.8 mph - N/A   Overcast
10:55 AM 37.4 °F 29.8 °F 32.0 °F 81% 29.85 in 10.0 mi NW 11.5 mph - N/A   Overcast
11:15 AM 37.4 °F 29.8 °F 32.0 °F 81% 29.85 in 10.0 mi NNW 11.5 mph - N/A   Overcast
11:35 AM 37.4 °F 30.8 °F 32.0 °F 81% 29.85 in 10.0 mi NNW 9.2 mph - N/A   Overcast
11:55 AM 39.2 °F 32.0 °F 32.0 °F 75% 29.85 in 10.0 mi WNW 11.5 mph - N/A   Overcast
12:15 PM 39.2 °F 33.0 °F 33.8 °F 81% 29.85 in 10.0 mi WNW 9.2 mph - N/A   Overcast
12:35 PM 39.2 °F 32.0 °F 33.8 °F 81% 29.84 in 10.0 mi WNW 11.5 mph - N/A   Overcast
12:55 PM 39.2 °F 33.0 °F 33.8 °F 81% 29.83 in 10.0 mi WNW 9.2 mph - N/A   Overcast
1:15 PM 39.2 °F 32.0 °F 32.0 °F 75% 29.83 in 10.0 mi WNW 11.5 mph - N/A   Overcast
1:35 PM 39.2 °F 32.5 °F 33.8 °F 81% 29.82 in 10.0 mi NW 10.4 mph - N/A   Overcast
1:55 PM 39.2 °F 33.6 °F 33.8 °F 81% 29.81 in 10.0 mi NW 8.1 mph - N/A   Overcast
2:15 PM 41.0 °F 35.2 °F 33.8 °F 76% 29.81 in 10.0 mi NW 9.2 mph - N/A   Overcast
2:35 PM 41.0 °F 35.8 °F 33.8 °F 76% 29.80 in 10.0 mi WNW 8.1 mph - N/A   Overcast
2:55 PM 41.0 °F 36.4 °F 33.8 °F 76% 29.79 in 10.0 mi NW 6.9 mph - N/A   Overcast
3:15 PM 41.0 °F 36.4 °F 33.8 °F 76% 29.77 in 10.0 mi NNW 6.9 mph - N/A   Overcast
3:35 PM 41.0 °F 36.4 °F 33.8 °F 76% 29.76 in 10.0 mi NW 6.9 mph - N/A   Overcast
3:55 PM 41.0 °F 37.1 °F 33.8 °F 76% 29.76 in 10.0 mi NNW 5.8 mph - N/A   Overcast
4:15 PM 41.0 °F - 33.8 °F 76% 29.75 in 10.0 mi Calm Calm - N/A   Overcast
4:35 PM 41.0 °F - 33.8 °F 76% 29.75 in 10.0 mi Calm Calm - N/A   Overcast
4:55 PM 41.0 °F - 33.8 °F 76% 29.75 in 10.0 mi Calm Calm - N/A   Overcast
5:15 PM 41.0 °F 39.0 °F 33.8 °F 76% 29.74 in 10.0 mi ESE 3.5 mph - N/A   Mostly Cloudy
5:35 PM 41.0 °F - 35.6 °F 81% 29.73 in 10.0 mi Calm Calm - N/A   Mostly Cloudy
5:55 PM 41.0 °F - 35.6 °F 81% 29.74 in 10.0 mi Calm Calm - N/A   Overcast
6:15 PM 41.0 °F 39.0 °F 35.6 °F 81% 29.72 in 10.0 mi SE 3.5 mph - N/A   Overcast
6:35 PM 41.0 °F 39.0 °F 35.6 °F 81% 29.73 in 10.0 mi South 3.5 mph - N/A   Overcast
6:55 PM 41.0 °F 39.0 °F 35.6 °F 81% 29.72 in 10.0 mi SSE 3.5 mph - N/A   Overcast
7:15 PM 41.0 °F 38.0 °F 35.6 °F 81% 29.72 in 10.0 mi SE 4.6 mph - N/A   Overcast
7:35 PM 39.2 °F 35.0 °F 35.6 °F 87% 29.71 in 10.0 mi SE 5.8 mph - N/A   Overcast
7:55 PM 39.2 °F 37.0 °F 35.6 °F 87% 29.72 in 10.0 mi South 3.5 mph - N/A   Mostly Cloudy
8:15 PM 39.2 °F 37.0 °F 35.6 °F 87% 29.72 in 10.0 mi South 3.5 mph - N/A   Overcast
8:35 PM 39.2 °F 35.9 °F 35.6 °F 87% 29.73 in 10.0 mi SSW 4.6 mph - N/A   Overcast
8:55 PM 39.2 °F 35.9 °F 35.6 °F 87% 29.73 in 10.0 mi SSW 4.6 mph - N/A   Overcast
9:15 PM 39.2 °F 34.2 °F 35.6 °F 87% 29.71 in 10.0 mi South 6.9 mph - N/A   Overcast
9:35 PM 39.2 °F 34.2 °F 35.6 °F 87% 29.70 in 10.0 mi SSE 6.9 mph - N/A   Mostly Cloudy
9:55 PM 39.2 °F 35.0 °F 35.6 °F 87% 29.70 in 10.0 mi SSE 5.8 mph - N/A   Scattered Clouds
10:15 PM 39.2 °F 33.6 °F 35.6 °F 87% 29.69 in 10.0 mi SSE 8.1 mph - N/A   Scattered Clouds
10:35 PM 39.2 °F 33.6 °F 35.6 °F 87% 29.68 in 10.0 mi SE 8.1 mph - N/A   Partly Cloudy
10:55 PM 39.2 °F 34.2 °F 35.6 °F 87% 29.68 in 10.0 mi SE 6.9 mph - N/A   Clear
11:15 PM 37.4 °F 32.1 °F 35.6 °F 93% 29.68 in 10.0 mi SE 6.9 mph - N/A   Clear
11:35 PM 37.4 °F 31.4 °F 35.6 °F 93% 29.67 in 10.0 mi SSE 8.1 mph - N/A   Clear
11:55 PM 37.4 °F 30.8 °F 35.6 °F 93% 29.66 in 10.0 mi SSE 9.2 mph - N/A   Clear